Time;durP1;ratioP1;P1;durP2;ratioP2;P2;SDS_P1;SDS_P2;PMS_P1;PMS_P2;Temp;Humidity;BMP_temperature;BMP_pressure;BME280_temperature;BME280_humidity;BME280_pressure;Samples;Min_cycle;Max_cycle;Signal;HPM_P1;HPM_P2
2022/05/02 00:00:51;;;;;;;20.67;11.93;;;;;;;;;;5073938;28;20052;-69
2022/05/02 00:03:17;;;;;;;19.85;11.20;;;;;;;;;;5074034;28;20052;-68
2022/05/02 00:05:43;;;;;;;19.02;12.13;;;;;;;;;;5075317;28;20048;-69
2022/05/02 00:08:09;;;;;;;;;;;;;;;;;;5075456;28;20043;-69
2022/05/02 00:10:36;;;;;;;21.67;12.15;;;;;;;;;;5074989;28;20010;-69
2022/05/02 00:13:02;;;;;;;18.88;12.73;;;;;;;;;;5075181;28;20052;-69
2022/05/02 00:15:29;;;;;;;20.63;12.77;;;;;;;;;;5075842;28;20091;-68
2022/05/02 00:17:59;;;;;;;18.33;12.27;;;;;;;;;;5075550;28;20048;-68
2022/05/02 00:20:28;;;;;;;21.33;12.38;;;;;;;;;;5074878;28;20044;-69
2022/05/02 00:22:55;;;;;;;21.48;12.77;;;;;;;;;;5075295;28;20053;-69
2022/05/02 00:25:21;;;;;;;19.88;12.68;;;;;;;;;;5074721;28;20045;-68
2022/05/02 00:27:48;;;;;;;21.38;13.40;;;;;;;;;;5074617;28;20052;-69
2022/05/02 00:30:15;;;;;;;19.58;12.93;;;;;;;;;;5057794;28;20365;-69
2022/05/02 00:32:42;;;;;;;18.85;12.82;;;;;;;;;;5074537;28;20131;-69
2022/05/02 00:35:08;;;;;;;;;;;;;;;;;;5075006;28;20052;-69
2022/05/02 00:37:34;;;;;;;20.08;12.98;;;;;;;;;;5075224;28;19920;-69
2022/05/02 00:40:00;;;;;;;18.90;13.15;;;;;;;;;;5074946;28;20046;-69
2022/05/02 00:42:26;;;;;;;22.35;13.13;;;;;;;;;;5073481;28;20048;-69
2022/05/02 00:44:52;;;;;;;21.75;13.45;;;;;;;;;;5074538;28;20067;-68
2022/05/02 00:47:21;;;;;;;20.95;12.95;;;;;;;;;;5075132;28;20048;-69
2022/05/02 00:49:50;;;;;;;21.52;13.20;;;;;;;;;;5055685;28;20044;-69
2022/05/02 00:52:17;;;;;;;21.88;13.02;;;;;;;;;;5072885;28;20052;-68
2022/05/02 00:54:44;;;;;;;19.63;12.25;;;;;;;;;;5073349;28;20048;-69
2022/05/02 00:57:14;;;;;;;21.50;13.32;;;;;;;;;;5074744;28;20060;-68
2022/05/02 00:59:41;;;;;;;21.70;13.98;;;;;;;;;;5074152;28;20057;-69
2022/05/02 01:02:10;;;;;;;21.58;13.30;;;;;;;;;;5074282;28;20044;-69
2022/05/02 01:04:37;;;;;;;20.55;13.20;;;;;;;;;;5073673;28;20489;-68
2022/05/02 01:07:09;;;;;;;22.52;14.13;;;;;;;;;;5074439;28;20080;-68
2022/05/02 01:09:38;;;;;;;19.92;13.40;;;;;;;;;;5057278;28;20515;-68
2022/05/02 01:12:08;;;;;;;23.13;13.95;;;;;;;;;;5072582;28;20132;-69
2022/05/02 01:14:35;;;;;;;23.73;13.23;;;;;;;;;;5072794;28;20048;-68
2022/05/02 01:17:01;;;;;;;;;;;;;;;;;;5074107;28;20083;-69
2022/05/02 01:19:27;;;;;;;22.05;13.55;;;;;;;;;;5073682;28;19990;-69
2022/05/02 01:21:53;;;;;;;21.65;13.68;;;;;;;;;;5073662;28;20052;-69
2022/05/02 01:24:19;;;;;;;21.77;13.57;;;;;;;;;;5073735;28;20052;-69
2022/05/02 01:26:45;;;;;;;19.63;14.00;;;;;;;;;;5073576;28;20506;-69
2022/05/02 01:29:11;;;;;;;21.98;14.30;;;;;;;;;;5072680;28;20135;-70
2022/05/02 01:31:37;;;;;;;19.92;13.73;;;;;;;;;;5072550;28;20101;-68
2022/05/02 01:34:03;;;;;;;23.27;14.25;;;;;;;;;;5074003;28;20087;-69
2022/05/02 01:36:30;;;;;;;20.55;13.85;;;;;;;;;;5073553;28;20567;-69
2022/05/02 01:38:55;;;;;;;;;;;;;;;;;;5074261;28;20044;-69
2022/05/02 01:41:22;;;;;;;23.00;14.77;;;;;;;;;;5074092;28;19925;-68
2022/05/02 01:43:48;;;;;;;18.58;13.13;;;;;;;;;;5072429;28;20060;-69
2022/05/02 01:46:15;;;;;;;21.15;14.45;;;;;;;;;;5073504;28;20048;-69
2022/05/02 01:48:41;;;;;;;23.52;14.93;;;;;;;;;;5073975;28;20047;-69
2022/05/02 01:51:07;;;;;;;21.40;13.80;;;;;;;;;;5073816;28;20058;-69
2022/05/02 01:53:33;;;;;;;23.45;14.23;;;;;;;;;;5072196;28;20137;-69
2022/05/02 01:55:59;;;;;;;22.40;14.05;;;;;;;;;;5072238;28;20130;-69
2022/05/02 01:58:25;;;;;;;21.10;14.40;;;;;;;;;;5073359;28;20056;-69
2022/05/02 02:00:51;;;;;;;24.80;15.07;;;;;;;;;;5077454;28;20135;-69
2022/05/02 02:03:17;;;;;;;20.75;14.02;;;;;;;;;;5078657;28;20048;-69
2022/05/02 02:05:49;;;;;;;21.63;15.00;;;;;;;;;;5078603;28;20499;-69
2022/05/02 02:08:29;;;;;;;20.52;13.98;;;;;;;;;;5079819;28;20079;-69
2022/05/02 02:10:56;;;;;;;21.52;14.43;;;;;;;;;;5079760;28;20051;-68
2022/05/02 02:13:22;;;;;;;23.30;15.73;;;;;;;;;;5079779;28;20053;-69
2022/05/02 02:15:48;;;;;;;24.92;14.93;;;;;;;;;;5080499;28;20376;-76
2022/05/02 02:18:14;;;;;;;23.90;14.45;;;;;;;;;;5079866;28;20105;-69
2022/05/02 02:20:42;;;;;;;22.45;14.57;;;;;;;;;;5079462;28;20048;-69
2022/05/02 02:23:09;;;;;;;25.17;15.25;;;;;;;;;;5078380;28;20052;-69
2022/05/02 02:25:36;;;;;;;20.20;13.65;;;;;;;;;;5078616;28;20049;-69
2022/05/02 02:28:03;;;;;;;24.45;14.65;;;;;;;;;;5080281;28;20048;-69
2022/05/02 02:30:29;;;;;;;20.33;13.93;;;;;;;;;;5078842;28;20380;-69
2022/05/02 02:32:56;;;;;;;28.40;15.68;;;;;;;;;;5079403;28;20048;-69
2022/05/02 02:35:22;;;;;;;21.58;15.05;;;;;;;;;;5079489;28;20063;-69
2022/05/02 02:37:49;;;;;;;24.00;14.95;;;;;;;;;;5079971;28;20125;-69
2022/05/02 02:40:15;;;;;;;23.95;16.08;;;;;;;;;;5079221;28;20048;-69
2022/05/02 02:42:41;;;;;;;24.05;16.38;;;;;;;;;;5079397;28;20051;-69
2022/05/02 02:45:08;;;;;;;24.08;16.10;;;;;;;;;;5079814;28;20044;-69
2022/05/02 02:47:34;;;;;;;22.60;15.80;;;;;;;;;;5078439;28;20052;-69
2022/05/02 02:50:00;;;;;;;23.45;16.30;;;;;;;;;;5080152;28;20103;-69
2022/05/02 02:52:26;;;;;;;26.20;16.80;;;;;;;;;;5079987;28;20075;-69
2022/05/02 02:54:52;;;;;;;24.25;16.17;;;;;;;;;;5079324;28;20048;-69
2022/05/02 02:57:18;;;;;;;24.90;15.27;;;;;;;;;;5079312;28;20040;-69
2022/05/02 02:59:44;;;;;;;23.90;16.27;;;;;;;;;;5079680;28;20071;-69
2022/05/02 03:02:10;;;;;;;26.40;16.20;;;;;;;;;;5079213;28;20052;-69
2022/05/02 03:07:23;;;;;;;26.80;17.27;;;;;;;;;;5079280;28;20133;-69
2022/05/02 03:09:49;;;;;;;23.48;16.98;;;;;;;;;;5078265;28;20138;-69
2022/05/02 03:12:15;;;;;;;23.40;16.45;;;;;;;;;;5076871;28;20056;-69
2022/05/02 03:14:41;;;;;;;24.00;16.48;;;;;;;;;;5075071;28;20051;-69
2022/05/02 03:17:07;;;;;;;23.10;15.40;;;;;;;;;;5075896;28;20048;-69
2022/05/02 03:19:33;;;;;;;23.17;16.55;;;;;;;;;;5075859;28;20086;-69
2022/05/02 03:21:59;;;;;;;22.92;16.50;;;;;;;;;;5075826;28;20079;-69
2022/05/02 03:24:25;;;;;;;27.10;17.95;;;;;;;;;;5075842;28;20123;-69
2022/05/02 03:26:51;;;;;;;23.42;17.30;;;;;;;;;;5074394;28;20103;-69
2022/05/02 03:29:17;;;;;;;24.08;17.00;;;;;;;;;;5075643;28;20047;-69
2022/05/02 03:31:44;;;;;;;26.52;18.38;;;;;;;;;;5076496;28;20080;-69
2022/05/02 03:34:10;;;;;;;26.60;19.35;;;;;;;;;;5076228;28;20055;-69
2022/05/02 03:36:36;;;;;;;24.95;17.73;;;;;;;;;;5075694;28;20131;-69
2022/05/02 03:39:02;;;;;;;27.10;19.23;;;;;;;;;;5076388;28;20048;-69
2022/05/02 03:41:28;;;;;;;25.80;17.77;;;;;;;;;;5074664;28;20481;-69
2022/05/02 03:43:54;;;;;;;25.00;17.88;;;;;;;;;;5075767;28;20048;-69
2022/05/02 03:46:20;;;;;;;26.20;17.70;;;;;;;;;;5075036;28;20091;-69
2022/05/02 03:48:46;;;;;;;28.63;18.38;;;;;;;;;;5074850;28;20048;-69
2022/05/02 03:51:12;;;;;;;25.92;18.58;;;;;;;;;;5074759;28;20055;-69
2022/05/02 03:53:38;;;;;;;26.58;16.80;;;;;;;;;;5074762;28;20091;-69
2022/05/02 03:56:05;;;;;;;25.77;17.95;;;;;;;;;;5073216;28;20056;-69
2022/05/02 03:58:31;;;;;;;24.25;17.63;;;;;;;;;;5072810;28;20107;-69
2022/05/02 04:00:57;;;;;;;25.38;17.88;;;;;;;;;;5073730;28;20056;-69
2022/05/02 04:03:23;;;;;;;28.17;18.00;;;;;;;;;;5074124;28;20048;-69
2022/05/02 04:05:49;;;;;;;25.48;18.05;;;;;;;;;;5073960;28;20361;-68
2022/05/02 04:08:15;;;;;;;23.27;15.93;;;;;;;;;;5073621;28;20040;-68
2022/05/02 04:10:42;;;;;;;23.00;17.88;;;;;;;;;;5072891;28;20041;-69
2022/05/02 04:13:08;;;;;;;24.60;17.40;;;;;;;;;;5071598;28;20048;-69
2022/05/02 04:15:35;;;;;;;27.58;17.38;;;;;;;;;;5072728;28;20083;-69
2022/05/02 04:18:01;;;;;;;25.88;18.45;;;;;;;;;;5071952;28;20052;-69
2022/05/02 04:20:27;;;;;;;24.25;17.45;;;;;;;;;;5054803;28;20128;-69
2022/05/02 04:22:53;;;;;;;25.95;18.27;;;;;;;;;;5072206;28;20128;-69
2022/05/02 04:25:19;;;;;;;26.83;18.15;;;;;;;;;;5072370;28;20047;-69
2022/05/02 04:27:45;;;;;;;27.65;17.17;;;;;;;;;;5071769;28;20056;-69
2022/05/02 04:30:12;;;;;;;25.40;17.38;;;;;;;;;;5072920;28;20132;-69
2022/05/02 04:32:38;;;;;;;24.75;17.13;;;;;;;;;;5072541;28;20048;-69
2022/05/02 04:35:04;;;;;;;;;;;;;;;;;;5072963;28;20094;-69
2022/05/02 04:37:30;;;;;;;29.02;20.17;;;;;;;;;;5072421;28;20010;-69
2022/05/02 04:39:56;;;;;;;25.83;18.23;;;;;;;;;;5072359;28;20388;-69
2022/05/02 04:42:23;;;;;;;24.50;18.77;;;;;;;;;;5072310;28;20393;-69
2022/05/02 04:44:49;;;;;;;28.17;20.27;;;;;;;;;;5072569;28;20515;-69
2022/05/02 04:47:15;;;;;;;27.50;19.50;;;;;;;;;;5070966;28;20055;-69
2022/05/02 04:49:41;;;;;;;28.83;19.63;;;;;;;;;;5072216;28;20037;-69
2022/05/02 04:52:08;;;;;;;26.40;19.67;;;;;;;;;;5072054;28;20052;-71
2022/05/02 04:54:34;;;;;;;;;;;;;;;;;;5072587;28;20063;-69
2022/05/02 04:57:00;;;;;;;24.17;17.45;;;;;;;;;;5070970;28;20280;-69
2022/05/02 04:59:26;;;;;;;25.70;16.98;;;;;;;;;;5071895;28;20060;-69
2022/05/02 05:01:52;;;;;;;21.27;15.60;;;;;;;;;;5072090;28;20052;-69
2022/05/02 05:04:18;;;;;;;21.33;16.02;;;;;;;;;;5071932;28;20085;-70
2022/05/02 05:06:44;;;;;;;23.67;15.85;;;;;;;;;;5070785;28;20047;-69
2022/05/02 05:09:10;;;;;;;;;;;;;;;;;;5071713;28;20040;-70
2022/05/02 05:11:54;;;;;;;22.60;16.35;;;;;;;;;;5071931;28;20372;-69
2022/05/02 05:17:43;;;;;;;24.63;17.77;;;;;;;;;;5071362;28;20056;-69
2022/05/02 05:20:18;;;;;;;27.52;17.45;;;;;;;;;;5071811;28;20054;-69
2022/05/02 05:23:03;;;;;;;30.60;19.20;;;;;;;;;;5070709;28;20101;-69
2022/05/02 05:25:32;;;;;;;24.45;17.80;;;;;;;;;;5070340;28;20048;-69
2022/05/02 05:28:04;;;;;;;26.42;18.42;;;;;;;;;;5071471;28;20044;-69
2022/05/02 05:30:36;;;;;;;26.50;18.48;;;;;;;;;;5071778;28;20059;-69
2022/05/02 05:33:05;;;;;;;28.75;19.90;;;;;;;;;;5071523;28;20128;-69
2022/05/02 05:35:51;;;;;;;25.25;18.70;;;;;;;;;;5071154;28;20044;-70
2022/05/02 05:38:36;;;;;;;27.10;19.20;;;;;;;;;;5057597;28;20055;-69
2022/05/02 05:41:09;;;;;;;29.45;20.73;;;;;;;;;;5071784;28;20048;-69
2022/05/02 05:43:42;;;;;;;30.33;22.60;;;;;;;;;;5071595;28;20080;-70
2022/05/02 05:46:23;;;;;;;30.65;22.48;;;;;;;;;;5071384;28;20041;-69
2022/05/02 05:48:49;;;;;;;32.53;23.45;;;;;;;;;;5069916;28;20048;-69
2022/05/02 05:51:28;;;;;;;32.17;23.33;;;;;;;;;;5070296;28;20105;-69
2022/05/02 05:54:10;;;;;;;32.38;22.00;;;;;;;;;;5071291;28;20044;-70
2022/05/02 05:56:51;;;;;;;32.13;23.13;;;;;;;;;;5071737;28;20052;-70
2022/05/02 05:59:37;;;;;;;31.73;22.38;;;;;;;;;;5071611;28;20537;-73
2022/05/02 06:02:07;;;;;;;33.63;22.70;;;;;;;;;;5074360;28;20052;-71
2022/05/02 06:04:33;;;;;;;42.97;28.35;;;;;;;;;;5073804;28;20048;-71
2022/05/02 06:07:00;;;;;;;;;;;;;;;;;;5071370;28;20052;-73
2022/05/02 06:09:30;;;;;;;42.97;32.70;;;;;;;;;;5070747;28;19920;-71
2022/05/02 06:11:58;;;;;;;46.30;30.88;;;;;;;;;;5070947;28;20044;-71
2022/05/02 06:14:28;;;;;;;38.60;26.63;;;;;;;;;;5070652;28;20102;-72
2022/05/02 06:19:43;;;;;;;31.23;22.00;;;;;;;;;;5070940;28;20131;-70
2022/05/02 06:22:10;;;;;;;33.50;22.85;;;;;;;;;;5071498;28;20389;-71
2022/05/02 06:24:37;;;;;;;27.17;19.85;;;;;;;;;;5069868;28;20052;-74
2022/05/02 06:27:03;;;;;;;;;;;;;;;;;;5071181;28;20135;-71
2022/05/02 06:29:29;;;;;;;31.58;20.70;;;;;;;;;;5070927;28;19966;-72
2022/05/02 06:31:58;;;;;;;31.42;20.75;;;;;;;;;;5070870;28;20410;-73
2022/05/02 06:34:28;;;;;;;31.63;20.75;;;;;;;;;;5053033;28;20069;-71
2022/05/02 06:36:59;;;;;;;32.40;20.88;;;;;;;;;;5071087;28;20049;-72
2022/05/02 06:39:35;;;;;;;28.23;19.25;;;;;;;;;;5071190;28;20049;-72
2022/05/02 06:42:07;;;;;;;27.17;18.38;;;;;;;;;;5071679;28;20168;-73
2022/05/02 06:44:51;;;;;;;30.00;20.98;;;;;;;;;;5070122;28;20508;-71
2022/05/02 06:47:24;;;;;;;28.40;20.67;;;;;;;;;;5070685;28;20159;-78
2022/05/02 06:49:52;;;;;;;26.88;19.90;;;;;;;;;;5075869;28;20048;-74
2022/05/02 06:52:21;;;;;;;30.70;22.45;;;;;;;;;;5079386;28;20095;-77
2022/05/02 06:55:03;;;;;;;29.27;20.70;;;;;;;;;;5075223;28;20047;-74
2022/05/02 06:57:47;;;;;;;32.30;22.63;;;;;;;;;;5074459;28;20051;-72
2022/05/02 07:00:17;;;;;;;29.65;20.40;;;;;;;;;;5072932;28;20484;-73
2022/05/02 07:02:52;;;;;;;30.48;22.15;;;;;;;;;;5074489;28;20049;-72
2022/05/02 07:05:38;;;;;;;32.70;23.25;;;;;;;;;;5074794;28;20048;-70
2022/05/02 07:08:05;;;;;;;34.25;25.50;;;;;;;;;;5074465;28;20075;-72
2022/05/02 07:10:38;;;;;;;36.15;26.65;;;;;;;;;;5074060;28;20048;-74
2022/05/02 07:13:08;;;;;;;35.58;26.70;;;;;;;;;;5072951;28;20051;-74
2022/05/02 07:15:49;;;;;;;36.53;27.90;;;;;;;;;;5073946;28;20132;-72
2022/05/02 07:18:18;;;;;;;37.85;27.27;;;;;;;;;;5073911;28;20047;-71
2022/05/02 07:21:03;;;;;;;32.28;21.25;;;;;;;;;;5074964;28;20100;-73
2022/05/02 07:23:32;;;;;;;32.55;22.38;;;;;;;;;;5074626;28;20049;-73
2022/05/02 07:26:07;;;;;;;24.73;16.10;;;;;;;;;;5073783;28;20392;-71
2022/05/02 07:28:44;;;;;;;21.67;13.90;;;;;;;;;;5074332;28;20048;-73
2022/05/02 07:31:12;;;;;;;24.73;13.82;;;;;;;;;;5072657;28;20500;-72
2022/05/02 07:33:39;;;;;;;17.67;10.82;;;;;;;;;;5072795;28;20060;-74
2022/05/02 07:36:05;;;;;;;18.42;10.18;;;;;;;;;;5073728;28;20048;-76
2022/05/02 07:38:31;;;;;;;;;;;;;;;;;;5074614;28;20491;-75
2022/05/02 07:43:44;;;;;;;18.27;10.48;;;;;;;;;;5073578;28;20578;-70
2022/05/02 07:46:11;;;;;;;21.50;9.65;;;;;;;;;;5074009;28;20040;-72
2022/05/02 07:48:40;;;;;;;21.08;9.43;;;;;;;;;;5073499;28;20151;-70
2022/05/02 07:51:09;;;;;;;18.85;10.73;;;;;;;;;;5074849;28;20472;-79
2022/05/02 07:53:37;;;;;;;18.23;9.38;;;;;;;;;;5085351;28;20044;-75
2022/05/02 07:56:04;;;;;;;19.90;10.35;;;;;;;;;;5085380;28;20353;-74
2022/05/02 07:58:31;;;;;;;18.13;9.38;;;;;;;;;;5071879;28;20047;-75
2022/05/02 08:00:57;;;;;;;17.83;10.15;;;;;;;;;;5073470;28;20053;-76
2022/05/02 08:03:25;;;;;;;17.10;9.95;;;;;;;;;;5073372;28;20048;-75
2022/05/02 08:06:06;;;;;;;15.55;9.45;;;;;;;;;;5072956;28;20381;-76
2022/05/02 08:08:36;;;;;;;18.30;10.27;;;;;;;;;;5073393;28;20120;-80
2022/05/02 08:11:12;;;;;;;16.17;9.25;;;;;;;;;;5073538;28;20048;-76
2022/05/02 08:13:56;;;;;;;17.02;10.20;;;;;;;;;;5073523;28;20106;-78
2022/05/02 08:16:26;;;;;;;15.93;10.15;;;;;;;;;;5073134;28;20052;-73
2022/05/02 08:19:03;;;;;;;15.45;9.07;;;;;;;;;;5072888;28;20052;-77
2022/05/02 08:21:29;;;;;;;;;;;;;;;;;;5074201;28;20067;-73
2022/05/02 08:27:27;;;;;;;18.02;9.48;;;;;;;;;;5057495;28;20091;-74
2022/05/02 08:30:07;;;;;;;18.40;9.55;;;;;;;;;;5060106;28;20063;-71
2022/05/02 08:32:43;;;;;;;15.63;9.63;;;;;;;;;;5071484;28;20063;-73
2022/05/02 08:35:09;;;;;;;16.80;9.57;;;;;;;;;;5071706;28;20048;-70
2022/05/02 08:37:45;;;;;;;16.83;9.57;;;;;;;;;;5072446;28;20052;-74
2022/05/02 08:40:31;;;;;;;17.58;10.65;;;;;;;;;;5072299;28;20074;-71
2022/05/02 08:43:00;;;;;;;15.27;8.85;;;;;;;;;;5054155;28;20106;-72
2022/05/02 08:45:27;;;;;;;16.90;8.90;;;;;;;;;;5072585;28;20052;-69
2022/05/02 08:48:12;;;;;;;21.67;9.60;;;;;;;;;;5072107;28;20172;-71
2022/05/02 08:50:50;;;;;;;15.57;9.10;;;;;;;;;;5071830;28;20459;-70
2022/05/02 08:53:35;;;;;;;16.52;9.35;;;;;;;;;;5070925;28;20045;-71
2022/05/02 08:56:01;;;;;;;19.58;9.55;;;;;;;;;;5071462;28;20095;-73
2022/05/02 08:58:37;;;;;;;18.30;9.93;;;;;;;;;;5072195;28;20045;-72
2022/05/02 09:01:04;;;;;;;17.10;9.52;;;;;;;;;;5072590;28;20530;-76
2022/05/02 09:03:30;;;;;;;16.88;9.95;;;;;;;;;;5071924;28;20044;-75
2022/05/02 09:05:58;;;;;;;18.65;9.98;;;;;;;;;;5071756;28;20140;-76
2022/05/02 09:08:24;;;;;;;18.13;9.27;;;;;;;;;;5070518;28;20055;-69
2022/05/02 09:10:56;;;;;;;16.50;9.55;;;;;;;;;;5071423;28;20098;-70
2022/05/02 09:13:28;;;;;;;20.73;10.70;;;;;;;;;;5072448;28;20148;-72
2022/05/02 09:16:07;;;;;;;16.55;9.10;;;;;;;;;;5071817;28;20044;-74
2022/05/02 09:18:48;;;;;;;15.77;9.68;;;;;;;;;;5054139;28;20158;-75
2022/05/02 09:21:33;;;;;;;20.38;9.57;;;;;;;;;;5071024;28;20044;-72
2022/05/02 09:24:16;;;;;;;21.08;10.32;;;;;;;;;;5071676;28;20151;-72
2022/05/02 09:27:21;;;;;;;22.45;11.10;;;;;;;;;;5071793;28;20111;-71
2022/05/02 09:29:49;;;;;;;16.98;10.20;;;;;;;;;;4989769;28;20050;-71
2022/05/02 09:32:31;;;;;;;21.33;9.55;;;;;;;;;;5054288;28;20283;-73
2022/05/02 09:35:03;;;;;;;19.55;8.80;;;;;;;;;;5070395;28;20044;-70
2022/05/02 09:37:38;;;;;;;18.27;9.40;;;;;;;;;;5071604;28;20207;-71
2022/05/02 09:40:15;;;;;;;17.10;9.70;;;;;;;;;;5071051;28;20043;-68
2022/05/02 09:42:41;;;;;;;;;;;;;;;;;;5072031;28;20056;-69
2022/05/02 09:51:00;;;;;;;16.92;9.07;;;;;;;;;;5071073;28;20048;-69
2022/05/02 09:53:39;;;;;;;18.55;9.18;;;;;;;;;;5070759;28;20071;-69
2022/05/02 09:58:59;;;;;;;17.35;9.27;;;;;;;;;;5070910;28;20044;-73
2022/05/02 10:01:28;;;;;;;15.27;9.10;;;;;;;;;;5071307;28;20472;-72
2022/05/02 10:04:00;;;;;;;22.80;11.65;;;;;;;;;;5071013;28;20052;-71
2022/05/02 10:06:44;;;;;;;21.35;12.82;;;;;;;;;;5071079;28;20083;-70
2022/05/02 10:09:29;;;;;;;17.00;9.35;;;;;;;;;;5071302;28;20457;-70
2022/05/02 10:12:13;;;;;;;19.67;9.13;;;;;;;;;;5070886;28;20139;-70
2022/05/02 10:14:50;;;;;;;15.07;8.63;;;;;;;;;;5071106;28;20055;-70
2022/05/02 10:17:19;;;;;;;18.23;8.95;;;;;;;;;;5071619;28;20087;-69
2022/05/02 10:19:57;;;;;;;16.25;8.70;;;;;;;;;;5070834;28;20044;-73
2022/05/02 10:22:30;;;;;;;17.73;8.57;;;;;;;;;;5074467;28;20044;-70
2022/05/02 10:25:18;;;;;;;18.30;7.70;;;;;;;;;;5075233;28;20098;-70
2022/05/02 10:28:03;;;;;;;15.25;8.68;;;;;;;;;;5075040;28;20041;-69
2022/05/02 10:30:30;;;;;;;15.85;8.52;;;;;;;;;;5074792;28;20370;-69
2022/05/02 10:32:57;;;;;;;19.85;8.30;;;;;;;;;;5075012;28;20044;-70
2022/05/02 10:35:24;;;;;;;15.15;8.50;;;;;;;;;;5073196;28;20146;-70
2022/05/02 10:37:50;;;;;;;17.45;9.27;;;;;;;;;;5074334;28;20044;-69
2022/05/02 10:40:17;;;;;;;18.65;10.05;;;;;;;;;;5074745;28;20045;-69
2022/05/02 10:42:50;;;;;;;16.35;9.02;;;;;;;;;;5073289;28;20123;-68
2022/05/02 10:45:16;;;;;;;17.23;8.23;;;;;;;;;;5073096;28;20437;-68
2022/05/02 10:47:51;;;;;;;15.20;9.15;;;;;;;;;;5074301;28;20048;-69
2022/05/02 10:50:18;;;;;;;13.55;8.27;;;;;;;;;;5074663;28;20040;-68
2022/05/02 10:52:48;;;;;;;15.10;8.63;;;;;;;;;;5074159;28;20436;-69
2022/05/02 10:55:27;;;;;;;14.25;8.32;;;;;;;;;;5074207;28;20056;-69
2022/05/02 10:58:00;;;;;;;15.82;8.23;;;;;;;;;;5074036;28;20484;-77
2022/05/02 11:00:28;;;;;;;13.50;7.68;;;;;;;;;;5072564;28;20053;-77
2022/05/02 11:03:20;;;;;;;16.27;7.55;;;;;;;;;;5073705;28;20060;-77
2022/05/02 11:05:49;;;;;;;17.10;7.38;;;;;;;;;;5051243;28;20068;-68
2022/05/02 11:08:29;;;;;;;14.48;7.47;;;;;;;;;;5074059;28;20040;-76
2022/05/02 11:11:07;;;;;;;16.77;7.45;;;;;;;;;;5074091;28;20048;-72
2022/05/02 11:13:39;;;;;;;14.52;7.47;;;;;;;;;;5074201;28;20059;-73
2022/05/02 11:16:17;;;;;;;13.77;7.55;;;;;;;;;;5074462;28;20185;-72
2022/05/02 11:21:52;;;;;;;16.77;9.63;;;;;;;;;;5073753;28;20484;-72
2022/05/02 11:24:18;;;;;;;13.38;6.70;;;;;;;;;;5073846;28;20094;-72
2022/05/02 11:27:05;;;;;;;12.25;6.70;;;;;;;;;;5072262;28;20488;-69
2022/05/02 11:29:38;;;;;;;13.15;6.32;;;;;;;;;;5073694;28;20560;-72
2022/05/02 11:32:05;;;;;;;11.82;6.28;;;;;;;;;;5073461;28;20054;-69
2022/05/02 11:34:38;;;;;;;14.45;6.25;;;;;;;;;;5073098;28;20087;-72
2022/05/02 11:37:06;;;;;;;17.10;6.10;;;;;;;;;;5074451;28;20048;-70
2022/05/02 11:39:50;;;;;;;29.40;7.18;;;;;;;;;;5073431;28;20435;-67
2022/05/02 11:42:21;;;;;;;12.52;5.75;;;;;;;;;;5074259;28;20384;-67
2022/05/02 11:44:48;;;;;;;15.57;5.35;;;;;;;;;;5073761;28;20128;-67
2022/05/02 11:47:19;;;;;;;11.90;5.20;;;;;;;;;;5073153;28;20151;-67
2022/05/02 11:50:00;;;;;;;12.95;5.90;;;;;;;;;;5072594;28;20083;-69
2022/05/02 11:52:35;;;;;;;12.43;5.38;;;;;;;;;;5073107;28;20055;-66
2022/05/02 11:55:03;;;;;;;17.50;5.45;;;;;;;;;;5072419;28;20086;-64
2022/05/02 11:57:35;;;;;;;12.40;5.95;;;;;;;;;;5073014;28;20128;-69
2022/05/02 12:00:11;;;;;;;13.15;6.38;;;;;;;;;;5072914;28;20056;-68
2022/05/02 12:02:38;;;;;;;12.35;5.90;;;;;;;;;;5073104;28;20087;-69
2022/05/02 12:05:24;;;;;;;11.60;5.90;;;;;;;;;;5071715;28;20052;-69
2022/05/02 12:07:50;;;;;;;13.60;6.40;;;;;;;;;;5041771;28;20049;-69
2022/05/02 12:10:18;;;;;;;12.95;6.13;;;;;;;;;;5073185;28;20099;-69
2022/05/02 12:12:49;;;;;;;13.82;6.55;;;;;;;;;;5073176;28;20048;-68
2022/05/02 12:15:15;;;;;;;14.10;6.95;;;;;;;;;;5072762;28;20056;-71
2022/05/02 12:17:55;;;;;;;15.07;6.70;;;;;;;;;;5072763;28;20052;-71
2022/05/02 12:20:25;;;;;;;13.88;6.90;;;;;;;;;;5072803;28;20048;-71
2022/05/02 12:23:03;;;;;;;12.57;7.10;;;;;;;;;;5073117;28;20052;-67
2022/05/02 12:25:29;;;;;;;13.88;7.53;;;;;;;;;;5072230;28;20512;-67
2022/05/02 12:27:56;;;;;;;16.27;7.25;;;;;;;;;;5072498;28;20060;-67
2022/05/02 12:30:25;;;;;;;16.73;7.90;;;;;;;;;;5072385;28;20059;-67
2022/05/02 12:32:51;;;;;;;14.43;7.68;;;;;;;;;;5072935;28;20048;-67
2022/05/02 12:35:17;;;;;;;;;;;;;;;;;;5072726;28;20048;-67
2022/05/02 12:37:46;;;;;;;14.35;7.97;;;;;;;;;;5071148;28;20256;-66
2022/05/02 12:40:13;;;;;;;14.38;7.70;;;;;;;;;;5071173;28;20127;-68
2022/05/02 12:42:44;;;;;;;15.48;8.20;;;;;;;;;;5071171;28;20135;-69
2022/05/02 12:45:11;;;;;;;14.73;7.80;;;;;;;;;;5071438;28;20053;-66
2022/05/02 12:47:41;;;;;;;16.02;8.15;;;;;;;;;;5072108;28;20044;-67
2022/05/02 12:50:08;;;;;;;14.93;8.05;;;;;;;;;;5072444;28;20040;-66
2022/05/02 12:52:35;;;;;;;20.67;8.65;;;;;;;;;;5071822;28;20465;-66
2022/05/02 12:55:02;;;;;;;15.57;8.27;;;;;;;;;;5072128;28;20176;-67
2022/05/02 13:00:33;;;;;;;16.58;8.73;;;;;;;;;;5071296;28;20304;-66
2022/05/02 13:03:18;;;;;;;14.07;7.82;;;;;;;;;;5071729;28;20128;-66
2022/05/02 13:05:47;;;;;;;15.38;7.22;;;;;;;;;;5071958;28;20048;-65
2022/05/02 13:08:16;;;;;;;16.05;7.53;;;;;;;;;;5071004;28;20121;-65
2022/05/02 13:10:43;;;;;;;15.18;7.80;;;;;;;;;;5071677;28;20049;-66
2022/05/02 13:13:11;;;;;;;14.98;7.40;;;;;;;;;;5072207;28;20117;-67
2022/05/02 13:15:37;;;;;;;13.70;7.57;;;;;;;;;;5071538;28;20049;-66
2022/05/02 13:18:09;;;;;;;15.35;7.38;;;;;;;;;;5071417;28;20064;-65
2022/05/02 13:20:36;;;;;;;17.58;8.23;;;;;;;;;;5071997;28;20135;-66
2022/05/02 13:23:10;;;;;;;15.27;7.63;;;;;;;;;;5071499;28;20094;-65
2022/05/02 13:25:55;;;;;;;14.93;8.40;;;;;;;;;;5071926;28;20048;-65
2022/05/02 13:28:27;;;;;;;16.67;8.45;;;;;;;;;;5071380;28;20044;-65
2022/05/02 13:30:58;;;;;;;14.98;8.35;;;;;;;;;;5070584;28;20052;-65
2022/05/02 13:33:29;;;;;;;14.15;6.85;;;;;;;;;;5071075;28;20437;-67
2022/05/02 13:36:05;;;;;;;15.40;7.85;;;;;;;;;;5071827;28;20052;-66
2022/05/02 13:38:38;;;;;;;19.20;7.87;;;;;;;;;;5071052;28;20135;-65
2022/05/02 13:41:33;;;;;;;13.45;7.20;;;;;;;;;;5071182;28;20287;-72
2022/05/02 13:44:06;;;;;;;14.63;7.50;;;;;;;;;;5071418;28;20131;-67
2022/05/02 13:46:39;;;;;;;17.63;8.48;;;;;;;;;;5072108;28;20123;-67
2022/05/02 13:49:17;;;;;;;14.70;7.50;;;;;;;;;;5071681;28;20101;-66
2022/05/02 13:51:49;;;;;;;25.98;9.20;;;;;;;;;;5070950;28;20060;-66
2022/05/02 13:54:26;;;;;;;15.68;8.40;;;;;;;;;;5070601;28;20164;-67
2022/05/02 13:56:53;;;;;;;14.63;7.47;;;;;;;;;;5070628;28;20489;-67
2022/05/02 13:59:37;;;;;;;15.73;7.47;;;;;;;;;;5069886;28;20052;-67
2022/05/02 14:02:31;;;;;;;14.68;7.50;;;;;;;;;;5071337;28;20056;-66
2022/05/02 14:05:06;;;;;;;15.60;7.72;;;;;;;;;;5070792;28;20508;-65
2022/05/02 14:07:33;;;;;;;16.02;7.43;;;;;;;;;;5071508;28;20056;-66
2022/05/02 14:10:03;;;;;;;14.57;6.97;;;;;;;;;;5070870;28;20058;-66
2022/05/02 14:12:35;;;;;;;13.77;7.43;;;;;;;;;;5071059;28;20045;-65
2022/05/02 14:15:04;;;;;;;18.27;7.15;;;;;;;;;;5071459;28;20445;-66
2022/05/02 14:20:11;;;;;;;12.95;6.93;;;;;;;;;;5071046;28;20425;-68
2022/05/02 14:22:40;;;;;;;13.10;7.55;;;;;;;;;;5071820;28;20123;-69
2022/05/02 14:25:07;;;;;;;16.88;7.80;;;;;;;;;;5070403;28;20064;-71
2022/05/02 14:27:33;;;;;;;16.05;7.15;;;;;;;;;;5069769;28;20138;-64
2022/05/02 14:30:03;;;;;;;13.85;7.35;;;;;;;;;;5071053;28;20041;-65
2022/05/02 14:32:40;;;;;;;13.10;6.63;;;;;;;;;;5071038;28;20055;-66
2022/05/02 14:35:07;;;;;;;14.25;6.82;;;;;;;;;;5053690;28;20052;-65
2022/05/02 14:37:33;;;;;;;12.50;6.40;;;;;;;;;;5069413;28;20056;-67
2022/05/02 14:39:59;;;;;;;;;;;;;;;;;;5071282;28;20049;-69
2022/05/02 14:42:27;;;;;;;14.27;7.00;;;;;;;;;;5070797;28;19924;-76
2022/05/02 14:44:53;;;;;;;12.65;6.43;;;;;;;;;;5069498;28;20045;-75
2022/05/02 14:47:19;;;;;;;;;;;;;;;;;;5071146;28;20061;-74
2022/05/02 14:49:45;;;;;;;12.43;6.13;;;;;;;;;;5071533;28;19924;-70
2022/05/02 14:52:18;;;;;;;;;;;;;;;;;;5071102;28;20488;-72
2022/05/02 14:54:45;;;;;;;12.68;6.20;;;;;;;;;;5070573;28;19978;-69
2022/05/02 14:57:13;;;;;;;13.57;6.07;;;;;;;;;;5070266;28;20476;-71
2022/05/02 14:59:41;;;;;;;13.55;6.03;;;;;;;;;;5070581;28;20059;-69
2022/05/02 15:02:08;;;;;;;12.15;5.70;;;;;;;;;;5070520;28;20135;-68
2022/05/02 15:04:39;;;;;;;12.05;5.97;;;;;;;;;;5070516;28;20045;-67
2022/05/02 15:07:08;;;;;;;12.30;6.15;;;;;;;;;;5070626;28;20535;-68
2022/05/02 15:12:34;;;;;;;11.98;6.25;;;;;;;;;;5074560;28;20063;-66
2022/05/02 15:15:08;;;;;;;12.57;5.53;;;;;;;;;;5074348;28;20092;-71
2022/05/02 15:17:39;;;;;;;12.27;5.55;;;;;;;;;;5072788;28;20056;-67
2022/05/02 15:20:19;;;;;;;11.43;5.15;;;;;;;;;;5073804;28;20040;-65
2022/05/02 15:22:53;;;;;;;11.40;5.10;;;;;;;;;;5073725;28;20373;-65